Time;durP1;ratioP1;P1;durP2;ratioP2;P2;SDS_P1;SDS_P2;PMS_P1;PMS_P2;Temp;Humidity;BMP_temperature;BMP_pressure;BME280_temperature;BME280_humidity;BME280_pressure;Samples;Min_cycle;Max_cycle;Signal;HPM_P1;HPM_P2
2022/10/12 00:00:58;;;;;;;30.70;20.15;;;13.00;99.90;;;;;;5089906;28;20196;-84
2022/10/12 00:03:26;;;;;;;28.60;19.60;;;13.00;99.90;;;;;;5088838;28;20197;-85
2022/10/12 00:06:02;;;;;;;32.63;21.05;;;12.90;99.90;;;;;;5093992;28;20687;-84
2022/10/12 00:08:29;;;;;;;30.88;20.55;;;12.90;99.90;;;;;;5096216;28;20200;-85
2022/10/12 00:10:55;;;;;;;32.20;20.75;;;12.90;99.90;;;;;;5087286;28;20199;-87
2022/10/12 00:13:27;;;;;;;32.00;20.83;;;12.90;99.90;;;;;;5095819;28;20320;-84
2022/10/12 00:15:53;;;;;;;30.75;20.85;;;12.90;99.90;;;;;;5101078;28;20196;-86
2022/10/12 00:18:27;;;;;;;32.75;20.77;;;13.10;99.90;;;;;;5094037;28;20283;-84
2022/10/12 00:21:01;;;;;;;29.40;21.17;;;13.00;99.90;;;;;;5087730;28;20665;-85
2022/10/12 00:23:28;;;;;;;32.20;20.42;;;13.00;99.90;;;;;;5094804;28;20193;-85
2022/10/12 00:25:56;;;;;;;31.88;22.75;;;13.00;99.90;;;;;;5094564;28;20279;-86
2022/10/12 00:28:23;;;;;;;29.45;22.50;;;13.10;99.90;;;;;;5091717;28;20208;-85
2022/10/12 00:30:50;;;;;;;27.98;20.60;;;13.30;99.90;;;;;;5085422;28;20199;-85
2022/10/12 00:33:17;;;;;;;26.98;20.63;;;13.30;99.90;;;;;;5089860;28;20188;-85
2022/10/12 00:35:45;;;;;;;30.48;21.73;;;13.20;99.90;;;;;;5112377;28;20192;-86
2022/10/12 00:38:14;;;;;;;30.13;21.25;;;13.10;99.90;;;;;;5092434;28;20276;-85
2022/10/12 00:40:41;;;;;;;28.17;21.13;;;13.00;99.90;;;;;;5100126;28;20200;-84
2022/10/12 00:43:25;;;;;;;32.33;21.83;;;13.00;99.90;;;;;;5096584;28;20204;-85
2022/10/12 00:45:52;;;;;;;31.10;22.27;;;13.00;99.90;;;;;;5097410;28;20204;-84
2022/10/12 00:48:27;;;;;;;29.38;21.40;;;13.00;99.90;;;;;;5099725;28;20292;-84
2022/10/12 00:51:00;;;;;;;25.50;19.67;;;13.00;99.90;;;;;;5103334;28;20203;-85
2022/10/12 00:53:37;;;;;;;28.65;22.17;;;13.00;99.90;;;;;;5101585;28;20212;-84
2022/10/12 00:56:10;;;;;;;28.38;20.83;;;13.20;99.90;;;;;;5105504;28;20199;-85
2022/10/12 00:58:38;;;;;;;37.75;25.63;;;13.10;99.90;;;;;;5104379;28;20197;-85
2022/10/12 01:01:06;;;;;;;27.73;20.83;;;13.20;99.90;;;;;;5103886;28;20592;-86
2022/10/12 01:03:33;;;;;;;26.40;20.35;;;13.30;99.90;;;;;;5103543;28;20209;-85
2022/10/12 01:06:02;;;;;;;30.75;21.58;;;13.20;99.90;;;;;;5088079;28;20221;-85
2022/10/12 01:08:30;;;;;;;28.55;20.98;;;13.20;99.90;;;;;;5096048;28;20656;-87
2022/10/12 01:10:57;;;;;;;31.42;21.67;;;13.10;99.90;;;;;;5093046;28;20197;-86
2022/10/12 01:13:24;;;;;;;29.98;22.00;;;12.90;99.90;;;;;;5097990;28;20256;-85
2022/10/12 01:15:57;;;;;;;32.47;21.73;;;12.90;99.90;;;;;;5085915;28;20205;-85
2022/10/12 01:18:30;;;;;;;30.67;21.80;;;12.80;99.90;;;;;;5094199;28;20197;-85
2022/10/12 01:21:04;;;;;;;31.20;21.98;;;12.90;99.90;;;;;;5089005;28;20432;-85
2022/10/12 01:24:04;;;;;;;29.20;22.08;;;12.90;99.90;;;;;;5093016;28;20207;-86
2022/10/12 01:27:06;;;;;;;26.50;20.17;;;12.90;99.90;;;;;;5096395;28;20287;-86
2022/10/12 01:30:02;;;;;;;34.63;21.58;;;13.00;99.90;;;;;;5095235;28;20301;-86
2022/10/12 01:32:33;;;;;;;36.15;22.25;;;13.10;99.90;;;;;;5098792;28;20205;-86
2022/10/12 01:35:05;;;;;;;33.95;22.92;;;13.00;99.90;;;;;;5097521;28;20199;-85
2022/10/12 01:37:47;;;;;;;28.33;22.08;;;13.00;99.90;;;;;;5098459;28;20403;-85
2022/10/12 01:40:18;;;;;;;35.58;23.98;;;12.90;99.90;;;;;;5101991;28;20220;-85
2022/10/12 01:42:45;;;;;;;34.88;24.95;;;12.90;99.90;;;;;;5101236;28;20224;-85
2022/10/12 01:45:14;;;;;;;38.35;24.85;;;12.80;99.90;;;;;;5102339;28;20678;-85
2022/10/12 01:47:48;;;;;;;37.65;24.90;;;12.90;99.90;;;;;;5097937;28;20292;-85
2022/10/12 01:50:17;;;;;;;36.45;25.10;;;12.90;99.90;;;;;;5094356;28;20200;-84
2022/10/12 01:52:54;;;;;;;38.70;25.23;;;12.80;99.90;;;;;;5105509;28;20231;-85
2022/10/12 01:55:37;;;;;;;42.00;26.55;;;12.90;99.90;;;;;;5100149;28;20314;-84
2022/10/12 01:58:25;;;;;;;42.90;26.52;;;12.80;99.90;;;;;;5113660;28;20204;-86
2022/10/12 02:00:59;;;;;;;46.58;26.33;;;12.80;99.90;;;;;;5108733;28;20216;-84
2022/10/12 02:03:36;;;;;;;47.35;28.67;;;12.80;99.90;;;;;;5106195;28;20230;-84
2022/10/12 02:06:06;;;;;;;44.80;27.63;;;12.80;99.90;;;;;;5098073;28;20227;-84
2022/10/12 02:08:37;;;;;;;49.13;28.75;;;12.80;99.90;;;;;;5094842;28;20197;-85
2022/10/12 02:11:08;;;;;;;43.58;27.02;;;12.80;99.90;;;;;;5096695;28;20205;-85
2022/10/12 02:13:40;;;;;;;45.45;25.45;;;12.80;99.90;;;;;;5095764;28;20193;-85
2022/10/12 02:16:10;;;;;;;46.97;27.27;;;12.90;99.90;;;;;;5100232;28;20192;-85
2022/10/12 02:18:42;;;;;;;51.10;27.38;;;13.10;99.90;;;;;;5094496;28;20193;-85
2022/10/12 02:21:12;;;;;;;40.97;27.85;;;13.10;99.90;;;;;;5093786;28;20227;-86
2022/10/12 02:23:39;;;;;;;45.75;27.20;;;13.10;99.90;;;;;;5094141;28;20289;-85
2022/10/12 02:26:08;;;;;;;41.42;27.33;;;13.10;99.90;;;;;;5098330;28;20193;-86
2022/10/12 02:28:37;;;;;;;39.58;25.80;;;13.20;99.90;;;;;;5095696;28;20287;-85
2022/10/12 02:31:10;;;;;;;44.85;27.08;;;13.30;99.90;;;;;;5095743;28;20543;-86
2022/10/12 02:33:44;;;;;;;45.28;27.42;;;13.30;99.90;;;;;;5095162;28;20203;-85
2022/10/12 02:36:15;;;;;;;46.50;26.70;;;13.30;99.90;;;;;;5095108;28;20211;-85
2022/10/12 02:38:48;;;;;;;44.97;26.85;;;13.20;99.90;;;;;;5096521;28;20200;-85
2022/10/12 02:41:19;;;;;;;57.88;28.63;;;13.20;99.90;;;;;;5094639;28;20561;-85
2022/10/12 02:43:50;;;;;;;54.88;30.00;;;13.20;99.90;;;;;;5099477;28;20197;-85
2022/10/12 02:46:19;;;;;;;50.97;28.48;;;13.10;99.90;;;;;;5093889;28;20196;-85
2022/10/12 02:48:49;;;;;;;51.83;28.58;;;13.10;99.90;;;;;;5097523;28;20200;-84
2022/10/12 02:51:39;;;;;;;50.40;29.00;;;13.10;99.90;;;;;;5098104;28;20196;-84
2022/10/12 02:54:15;;;;;;;52.47;28.88;;;13.20;99.90;;;;;;5095272;28;20996;-84
2022/10/12 02:56:50;;;;;;;57.67;30.30;;;13.10;99.90;;;;;;5094373;28;20192;-85
2022/10/12 02:59:27;;;;;;;62.88;31.40;;;13.00;99.90;;;;;;5090032;28;20307;-86
2022/10/12 03:02:02;;;;;;;57.22;31.20;;;13.00;99.90;;;;;;5091809;28;20196;-84
2022/10/12 03:04:46;;;;;;;60.10;31.55;;;12.90;99.90;;;;;;5104504;28;20279;-85
2022/10/12 03:07:26;;;;;;;58.22;31.92;;;12.90;99.90;;;;;;5089591;28;20197;-85
2022/10/12 03:10:14;;;;;;;57.50;31.00;;;12.90;99.90;;;;;;5094071;28;20198;-85
2022/10/12 03:12:44;;;;;;;51.60;30.15;;;12.90;99.90;;;;;;5083229;28;20280;-85
2022/10/12 03:15:11;;;;;;;55.80;29.17;;;13.00;99.90;;;;;;5088246;28;20228;-85
2022/10/12 03:17:38;;;;;;;55.10;30.85;;;13.00;99.90;;;;;;5093430;28;20619;-85
2022/10/12 03:20:07;;;;;;;56.10;32.28;;;13.00;99.90;;;;;;5096660;28;20227;-85
2022/10/12 03:22:34;;;;;;;61.72;32.40;;;12.90;99.90;;;;;;5084215;28;20203;-85
2022/10/12 03:25:01;;;;;;;53.97;31.33;;;12.90;99.90;;;;;;5086090;28;20201;-85
2022/10/12 03:27:30;;;;;;;53.72;30.75;;;13.00;99.90;;;;;;5087136;28;20224;-88
2022/10/12 03:30:02;;;;;;;52.75;30.92;;;13.10;99.90;;;;;;5088181;28;20723;-85
2022/10/12 03:32:29;;;;;;;55.22;30.25;;;13.20;99.90;;;;;;5089931;28;20203;-85
2022/10/12 03:34:56;;;;;;;55.38;30.88;;;13.30;99.90;;;;;;5090141;28;20203;-84
2022/10/12 03:37:24;;;;;;;50.65;30.85;;;13.30;99.90;;;;;;5079303;28;20201;-86
2022/10/12 03:39:51;;;;;;;59.78;30.45;;;13.40;99.90;;;;;;5091229;28;20205;-84
2022/10/12 03:42:18;;;;;;;57.47;30.63;;;13.30;99.90;;;;;;5094916;28;20232;-85
2022/10/12 03:44:50;;;;;;;53.90;29.67;;;13.20;99.90;;;;;;5102216;28;20194;-85
2022/10/12 03:47:17;;;;;;;62.00;32.45;;;13.30;99.90;;;;;;5093834;28;20200;-86
2022/10/12 03:49:44;;;;;;;76.60;32.03;;;13.30;99.90;;;;;;5091366;28;20563;-85
2022/10/12 03:52:14;;;;;;;61.72;33.78;;;13.10;99.90;;;;;;5101098;28;20263;-85
2022/10/12 03:54:42;;;;;;;68.70;32.70;;;13.00;99.90;;;;;;5099679;28;20283;-85
2022/10/12 03:57:20;;;;;;;65.30;32.53;;;12.90;99.90;;;;;;5095651;28;20287;-85
2022/10/12 03:59:56;;;;;;;59.08;33.88;;;12.90;99.90;;;;;;5091183;28;20624;-85
2022/10/12 04:02:23;;;;;;;56.67;31.08;;;12.80;99.90;;;;;;5091236;28;20225;-85
2022/10/12 04:04:50;;;;;;;55.83;31.15;;;12.90;99.90;;;;;;5094821;28;20658;-86
2022/10/12 04:07:17;;;;;;;60.35;32.38;;;13.00;99.90;;;;;;5094167;28;20746;-86
2022/10/12 04:09:46;;;;;;;52.05;29.80;;;13.10;99.90;;;;;;5091154;28;20284;-85
2022/10/12 04:12:13;;;;;;;59.47;32.13;;;13.10;99.90;;;;;;5092309;28;20200;-85
2022/10/12 04:14:40;;;;;;;64.32;32.75;;;13.00;99.90;;;;;;5080950;28;20553;-85
2022/10/12 04:17:07;;;;;;;62.85;32.35;;;13.00;99.90;;;;;;5090702;28;20287;-84
2022/10/12 04:19:33;;;;;;;52.80;30.70;;;13.00;99.90;;;;;;5089483;28;20264;-86
2022/10/12 04:22:00;;;;;;;58.13;31.80;;;13.00;99.90;;;;;;5092907;28;20283;-85
2022/10/12 04:24:27;;;;;;;62.65;33.63;;;13.00;99.90;;;;;;5086357;28;20275;-85
2022/10/12 04:26:58;;;;;;;63.97;33.80;;;13.00;99.90;;;;;;5093742;28;20283;-85
2022/10/12 04:29:26;;;;;;;62.05;32.75;;;13.00;99.90;;;;;;5106058;28;20264;-86
2022/10/12 04:31:53;;;;;;;70.18;34.08;;;12.90;99.90;;;;;;5097226;28;20280;-84
2022/10/12 04:34:20;;;;;;;66.78;34.00;;;12.80;99.90;;;;;;5097436;28;20271;-84
2022/10/12 04:36:47;;;;;;;76.60;34.13;;;12.80;99.90;;;;;;5099100;28;20256;-84
2022/10/12 04:39:14;;;;;;;71.95;34.30;;;12.80;99.90;;;;;;5090245;28;20275;-85
2022/10/12 04:41:58;;;;;;;76.70;34.33;;;12.80;99.90;;;;;;5090353;28;20675;-84
2022/10/12 04:44:26;;;;;;;68.05;34.70;;;12.80;99.90;;;;;;5098055;28;20195;-85
2022/10/12 04:47:03;;;;;;;62.05;33.92;;;12.70;99.90;;;;;;5083356;28;20201;-86
2022/10/12 04:49:30;;;;;;;49.75;30.95;;;12.80;99.90;;;;;;5092195;28;20234;-84
2022/10/12 04:51:57;;;;;;;50.92;31.92;;;13.00;99.90;;;;;;5087866;28;20295;-85
2022/10/12 04:54:26;;;;;;;55.60;32.45;;;13.10;99.90;;;;;;5099480;28;20276;-84
2022/10/12 04:56:53;;;;;;;64.57;33.45;;;13.10;99.90;;;;;;5098276;28;20630;-84
2022/10/12 04:59:28;;;;;;;61.63;31.83;;;13.10;99.90;;;;;;5105534;28;20192;-86
2022/10/12 05:01:56;;;;;;;76.03;34.55;;;13.00;99.90;;;;;;5104212;28;20225;-86
2022/10/12 05:04:38;;;;;;;66.05;34.50;;;12.90;99.90;;;;;;5104943;28;20228;-85
2022/10/12 05:07:09;;;;;;;65.45;33.13;;;12.80;99.90;;;;;;5090652;28;20257;-83
2022/10/12 05:09:50;;;;;;;63.75;32.53;;;12.80;99.90;;;;;;5097369;28;20312;-84
2022/10/12 05:12:32;;;;;;;54.22;30.70;;;12.80;99.90;;;;;;5092016;28;20271;-85
2022/10/12 05:15:21;;;;;;;58.05;32.72;;;12.90;99.90;;;;;;5082825;28;20292;-85
2022/10/12 05:17:56;;;;;;;65.25;33.20;;;13.00;99.90;;;;;;5082506;28;20683;-83
2022/10/12 05:20:50;;;;;;;51.83;31.65;;;13.00;99.90;;;;;;5083632;28;20240;-84
2022/10/12 05:23:17;;;;;;;48.72;30.30;;;13.00;99.90;;;;;;5090876;28;20200;-85
2022/10/12 05:25:44;;;;;;;49.63;29.90;;;13.10;99.90;;;;;;5100971;28;20191;-85
2022/10/12 05:28:11;;;;;;;49.35;29.73;;;13.20;99.90;;;;;;5097341;28;20208;-85
2022/10/12 05:30:41;;;;;;;49.88;30.23;;;13.30;99.90;;;;;;5092942;28;20196;-86
2022/10/12 05:33:14;;;;;;;50.45;29.58;;;13.30;99.90;;;;;;5089148;28;20192;-86
2022/10/12 05:35:41;;;;;;;74.55;32.78;;;13.20;99.90;;;;;;5070858;28;20204;-85
2022/10/12 05:38:14;;;;;;;61.65;33.35;;;13.20;99.90;;;;;;5093400;28;20719;-85
2022/10/12 05:40:42;;;;;;;67.05;33.88;;;13.10;99.90;;;;;;5092708;28;20268;-85
2022/10/12 05:43:09;;;;;;;67.85;34.83;;;13.00;99.90;;;;;;5094017;28;20205;-85
2022/10/12 05:45:35;;;;;;;69.93;33.92;;;12.90;99.90;;;;;;5103029;28;20283;-84
2022/10/12 05:48:04;;;;;;;58.63;32.25;;;12.90;99.90;;;;;;5096754;28;20687;-88
2022/10/12 05:50:31;;;;;;;67.38;34.30;;;12.90;99.90;;;;;;5089559;28;20205;-85
2022/10/12 05:52:57;;;;;;;60.38;33.03;;;12.90;99.90;;;;;;5089397;28;20639;-85
2022/10/12 05:55:24;;;;;;;60.00;33.67;;;13.00;99.90;;;;;;5087246;28;20275;-85
2022/10/12 05:57:51;;;;;;;73.38;34.05;;;13.00;99.90;;;;;;5097475;28;20290;-85
2022/10/12 06:00:20;;;;;;;66.95;33.30;;;13.00;99.90;;;;;;5098132;28;20264;-84
2022/10/12 06:02:47;;;;;;;63.80;33.47;;;12.90;99.90;;;;;;5093872;28;20196;-85
2022/10/12 06:05:16;;;;;;;58.15;32.80;;;12.90;99.90;;;;;;5100825;28;20303;-84
2022/10/12 06:07:42;;;;;;;60.22;33.70;;;12.90;99.90;;;;;;5096879;28;20616;-84
2022/10/12 06:10:10;;;;;;;65.93;34.85;;;13.00;99.90;;;;;;5096307;28;20280;-84
2022/10/12 06:12:37;;;;;;;64.90;34.97;;;13.00;99.90;;;;;;5087809;28;20215;-89
2022/10/12 06:15:05;;;;;;;60.13;34.55;;;12.90;99.90;;;;;;5095728;28;20263;-84
2022/10/12 06:17:32;;;;;;;59.72;32.95;;;12.90;99.90;;;;;;5096880;28;20205;-85
2022/10/12 06:19:59;;;;;;;66.28;33.50;;;13.10;99.90;;;;;;5088851;28;20280;-84
2022/10/12 06:22:27;;;;;;;57.28;32.42;;;13.10;99.90;;;;;;5083157;28;20256;-84
2022/10/12 06:24:56;;;;;;;52.70;30.75;;;13.00;99.90;;;;;;5107544;28;20231;-84
2022/10/12 06:27:24;;;;;;;59.83;33.15;;;13.20;99.90;;;;;;5109864;28;20225;-85
2022/10/12 06:29:50;;;;;;;58.97;32.72;;;13.20;99.90;;;;;;5106425;28;20204;-85
2022/10/12 06:32:17;;;;;;;62.15;34.10;;;13.30;99.90;;;;;;5086490;28;20274;-85
2022/10/12 06:34:44;;;;;;;59.78;33.13;;;13.30;99.90;;;;;;5090163;28;20212;-84
2022/10/12 06:37:14;;;;;;;62.17;33.83;;;13.20;99.90;;;;;;5080420;28;20246;-83
2022/10/12 06:39:42;;;;;;;58.03;33.13;;;13.20;99.90;;;;;;5085861;28;20284;-84
2022/10/12 06:42:10;;;;;;;51.85;31.42;;;13.20;99.90;;;;;;5093295;28;20303;-84
2022/10/12 06:44:37;;;;;;;56.40;31.48;;;13.10;99.90;;;;;;5092140;28;20202;-84
2022/10/12 06:47:04;;;;;;;53.28;31.33;;;13.10;99.90;;;;;;5083319;28;20236;-84
2022/10/12 06:49:31;;;;;;;53.78;31.90;;;13.20;99.90;;;;;;5094798;28;20199;-84
2022/10/12 06:51:58;;;;;;;48.85;29.67;;;13.40;99.90;;;;;;5083853;28;20201;-85
2022/10/12 06:54:25;;;;;;;44.58;28.10;;;13.50;99.90;;;;;;5084986;28;20650;-86
2022/10/12 06:56:53;;;;;;;41.97;28.88;;;13.80;99.90;;;;;;5082086;28;20215;-86
2022/10/12 06:59:21;;;;;;;48.35;30.27;;;13.90;99.90;;;;;;5088571;28;20204;-84
2022/10/12 07:01:48;;;;;;;52.35;30.58;;;14.00;99.90;;;;;;5096526;28;20298;-85
2022/10/12 07:04:15;;;;;;;47.50;29.05;;;13.90;99.90;;;;;;5094112;28;20291;-85
2022/10/12 07:06:44;;;;;;;46.63;28.90;;;13.80;99.90;;;;;;5098356;28;20206;-85
2022/10/12 07:09:11;;;;;;;46.53;28.80;;;13.80;99.90;;;;;;5097448;28;20200;-85
2022/10/12 07:11:38;;;;;;;43.42;28.73;;;13.80;99.90;;;;;;5097747;28;20287;-85
2022/10/12 07:14:06;;;;;;;45.88;28.80;;;13.80;99.90;;;;;;5091782;28;20220;-86
2022/10/12 07:16:33;;;;;;;48.40;28.92;;;13.80;99.90;;;;;;5092945;28;20296;-85
2022/10/12 07:19:02;;;;;;;48.78;28.48;;;13.90;99.90;;;;;;5096952;28;20201;-85
2022/10/12 07:21:29;;;;;;;45.72;29.30;;;13.90;99.90;;;;;;5096453;28;20565;-85
2022/10/12 07:23:56;;;;;;;40.13;26.17;;;14.00;99.90;;;;;;5098088;28;20200;-87
2022/10/12 07:26:23;;;;;;;40.40;26.65;;;14.20;99.90;;;;;;5090750;28;20205;-86
2022/10/12 07:28:50;;;;;;;35.22;24.05;;;14.30;99.90;;;;;;5101518;28;20298;-85
2022/10/12 07:31:18;;;;;;;39.20;24.48;;;14.40;99.90;;;;;;5092923;28;20296;-85
2022/10/12 07:33:50;;;;;;;39.58;25.48;;;14.80;99.90;;;;;;5096920;28;20210;-85
2022/10/12 07:36:17;;;;;;;34.00;24.25;;;14.70;99.90;;;;;;5102852;28;20284;-84
2022/10/12 07:38:44;;;;;;;28.35;20.65;;;14.70;99.90;;;;;;5093918;28;20277;-85
2022/10/12 07:41:12;;;;;;;30.58;20.52;;;14.80;99.40;;;;;;5092228;28;20217;-85
2022/10/12 07:43:38;;;;;;;30.10;19.40;;;14.80;99.20;;;;;;5094257;28;20222;-85
2022/10/12 07:46:06;;;;;;;30.13;20.50;;;14.90;98.80;;;;;;5095972;28;20260;-85
2022/10/12 07:48:34;;;;;;;27.75;19.98;;;14.90;99.10;;;;;;5098089;28;20395;-85
2022/10/12 07:51:14;;;;;;;29.90;19.92;;;14.80;99.20;;;;;;5095171;28;20284;-85
2022/10/12 07:53:41;;;;;;;30.55;20.30;;;14.90;98.50;;;;;;5094291;28;20280;-85
2022/10/12 07:56:15;;;;;;;24.00;17.67;;;14.70;98.70;;;;;;5096706;28;20224;-85
2022/10/12 07:58:42;;;;;;;24.45;17.55;;;14.60;98.70;;;;;;5094294;28;20275;-85
2022/10/12 08:01:09;;;;;;;21.83;16.02;;;14.60;98.60;;;;;;5093090;28;20226;-84
2022/10/12 08:03:40;;;;;;;22.58;17.25;;;14.80;97.60;;;;;;5094832;28;20211;-85
2022/10/12 08:06:11;;;;;;;24.65;16.50;;;14.90;97.20;;;;;;5099445;28;20219;-85
2022/10/12 08:08:39;;;;;;;22.95;16.08;;;14.80;97.80;;;;;;5087398;28;20674;-85
2022/10/12 08:11:07;;;;;;;24.67;16.95;;;14.80;97.40;;;;;;5099787;28;20206;-85
2022/10/12 08:13:39;;;;;;;25.23;16.77;;;14.80;97.70;;;;;;5091205;28;20206;-85
2022/10/12 08:16:10;;;;;;;26.70;16.08;;;14.90;97.30;;;;;;5092667;28;20252;-85
2022/10/12 08:18:37;;;;;;;22.38;16.33;;;14.90;97.50;;;;;;5100497;28;20649;-85
2022/10/12 08:21:12;;;;;;;25.52;15.45;;;15.00;96.90;;;;;;5089627;28;20315;-84
2022/10/12 08:23:39;;;;;;;20.15;14.65;;;15.30;96.50;;;;;;5091980;28;20210;-85
2022/10/12 08:26:07;;;;;;;24.90;16.08;;;15.30;95.70;;;;;;5102029;28;20193;-84
2022/10/12 08:28:33;;;;;;;23.30;15.80;;;15.20;95.70;;;;;;5090372;28;20573;-86
2022/10/12 08:31:05;;;;;;;25.15;15.60;;;15.20;95.90;;;;;;5085720;28;20199;-86
2022/10/12 08:33:32;;;;;;;21.38;14.55;;;15.30;95.80;;;;;;5098484;28;20401;-85
2022/10/12 08:36:02;;;;;;;23.30;14.65;;;15.20;96.20;;;;;;5092602;28;20220;-85
2022/10/12 08:38:30;;;;;;;19.08;14.57;;;15.20;95.90;;;;;;5092961;28;20195;-87
2022/10/12 08:41:05;;;;;;;21.13;15.50;;;15.10;96.40;;;;;;5093406;28;20680;-85
2022/10/12 08:43:42;;;;;;;21.08;15.05;;;15.10;95.90;;;;;;5087593;28;20707;-85
2022/10/12 08:46:09;;;;;;;22.70;14.32;;;15.10;95.70;;;;;;5091317;28;20207;-84
2022/10/12 08:48:45;;;;;;;22.75;14.43;;;15.00;96.00;;;;;;5098559;28;20269;-84
2022/10/12 08:51:17;;;;;;;25.30;15.43;;;15.10;95.60;;;;;;5087947;28;20204;-85
2022/10/12 08:53:52;;;;;;;19.10;14.38;;;15.10;95.60;;;;;;5093755;28;20200;-84
2022/10/12 08:56:52;;;;;;;24.58;14.13;;;15.00;95.90;;;;;;5077379;28;20210;-85
2022/10/12 08:59:21;;;;;;;20.58;15.00;;;15.10;95.30;;;;;;5092906;28;20188;-85
2022/10/12 09:02:31;;;;;;;20.77;14.32;;;15.10;95.30;;;;;;5098126;28;20219;-85
2022/10/12 09:05:22;;;;;;;31.55;23.40;;;15.10;95.60;;;;;;5097699;28;20220;-85
2022/10/12 09:07:54;;;;;;;21.98;15.52;;;15.20;95.60;;;;;;5092508;28;20196;-84
2022/10/12 09:10:36;;;;;;;22.88;15.10;;;15.30;95.00;;;;;;5097177;28;20719;-85
2022/10/12 09:13:13;;;;;;;28.80;21.90;;;15.50;94.60;;;;;;5096830;28;20205;-85
2022/10/12 09:15:53;;;;;;;22.70;14.55;;;15.60;94.40;;;;;;5092386;28;20196;-84
2022/10/12 09:18:25;;;;;;;21.80;14.48;;;15.50;94.40;;;;;;5105590;28;20249;-85
2022/10/12 09:20:53;;;;;;;21.90;15.60;;;15.60;94.00;;;;;;5103847;28;20581;-85
2022/10/12 09:23:25;;;;;;;23.27;14.80;;;15.50;94.10;;;;;;5101150;28;20694;-85
2022/10/12 09:25:56;;;;;;;17.70;13.70;;;15.40;95.10;;;;;;5094206;28;20412;-85
2022/10/12 09:28:29;;;;;;;18.08;12.75;;;15.40;95.10;;;;;;5094400;28;20208;-84
2022/10/12 09:31:11;;;;;;;19.60;14.00;;;15.50;94.60;;;;;;5107353;28;20196;-85
2022/10/12 09:33:41;;;;;;;19.02;13.88;;;15.60;93.80;;;;;;5103122;28;20204;-85
2022/10/12 09:36:12;;;;;;;20.42;13.80;;;15.70;93.50;;;;;;5098374;28;20246;-84
2022/10/12 09:38:44;;;;;;;20.90;14.93;;;15.70;93.50;;;;;;5099928;28;20720;-85
2022/10/12 09:41:20;;;;;;;22.33;14.55;;;15.70;93.10;;;;;;5096940;28;20727;-85
2022/10/12 09:43:54;;;;;;;19.98;13.77;;;15.90;92.40;;;;;;5093570;28;20196;-85
2022/10/12 09:46:39;;;;;;;19.27;13.73;;;15.70;93.10;;;;;;5094563;28;20206;-85
2022/10/12 09:49:06;;;;;;;22.52;14.95;;;15.70;93.40;;;;;;5089221;28;20254;-85
2022/10/12 09:51:33;;;;;;;22.33;14.85;;;15.80;93.20;;;;;;5094093;28;20283;-85
2022/10/12 09:54:03;;;;;;;20.52;14.45;;;16.00;93.00;;;;;;5093670;28;20544;-85
2022/10/12 09:56:38;;;;;;;20.13;13.75;;;16.30;91.80;;;;;;5092620;28;20563;-85
2022/10/12 09:59:17;;;;;;;22.80;13.45;;;16.40;91.20;;;;;;5088517;28;20215;-85
2022/10/12 10:01:57;;;;;;;21.88;13.63;;;16.30;91.80;;;;;;5091757;28;20566;-85
2022/10/12 10:04:25;;;;;;;24.15;14.65;;;16.50;92.50;;;;;;5092609;28;20189;-85
2022/10/12 10:07:13;;;;;;;23.92;16.67;;;16.60;91.50;;;;;;5087722;28;20239;-85
2022/10/12 10:09:40;;;;;;;20.20;14.82;;;16.90;90.50;;;;;;5093087;28;20197;-85
2022/10/12 10:12:23;;;;;;;20.92;13.82;;;17.00;90.30;;;;;;5098281;28;20206;-85
2022/10/12 10:14:51;;;;;;;17.98;13.70;;;17.20;86.80;;;;;;5095015;28;20204;-85
2022/10/12 10:17:25;;;;;;;22.63;14.55;;;17.10;87.30;;;;;;5095098;28;20211;-85
2022/10/12 10:19:52;;;;;;;20.52;13.50;;;17.00;88.20;;;;;;5097498;28;20193;-84
2022/10/12 10:22:33;;;;;;;17.33;12.77;;;17.30;85.00;;;;;;5097496;28;20227;-85
2022/10/12 10:25:20;;;;;;;20.17;13.65;;;17.40;84.70;;;;;;5095223;28;20202;-85
2022/10/12 10:27:49;;;;;;;20.05;13.73;;;17.70;81.30;;;;;;5093778;28;20275;-85
2022/10/12 10:30:22;;;;;;;22.90;13.27;;;17.90;79.30;;;;;;5094227;28;20589;-85
2022/10/12 10:33:06;;;;;;;21.65;12.73;;;17.80;79.30;;;;;;5090959;28;20649;-85
2022/10/12 10:35:33;;;;;;;19.13;12.80;;;17.90;74.40;;;;;;5093119;28;20204;-86
2022/10/12 10:38:03;;;;;;;21.42;12.95;;;17.30;76.90;;;;;;5097334;28;20196;-84
2022/10/12 10:40:33;;;;;;;15.27;11.80;;;17.00;80.60;;;;;;5099881;28;20269;-85
2022/10/12 10:43:05;;;;;;;13.25;9.85;;;17.00;84.20;;;;;;5096457;28;20232;-85
2022/10/12 10:45:37;;;;;;;17.27;10.68;;;17.30;79.00;;;;;;5099088;28;20197;-85
2022/10/12 10:48:09;;;;;;;16.83;12.25;;;18.00;70.90;;;;;;5098403;28;20207;-85
2022/10/12 10:50:39;;;;;;;17.95;11.63;;;18.50;66.80;;;;;;5102759;28;20203;-85
2022/10/12 10:53:14;;;;;;;13.95;11.30;;;18.30;66.50;;;;;;5096624;28;20201;-86
2022/10/12 10:55:46;;;;;;;17.27;11.00;;;18.60;64.90;;;;;;5093251;28;20193;-85
2022/10/12 10:58:24;;;;;;;14.65;10.98;;;19.00;59.90;;;;;;5094407;28;20292;-85
2022/10/12 11:01:38;;;;;;;15.93;9.70;;;19.50;53.30;;;;;;5093494;28;20218;-85
2022/10/12 11:04:11;;;;;;;15.18;9.88;;;19.90;53.10;;;;;;5083474;28;20217;-81
2022/10/12 11:06:41;;;;;;;16.25;10.73;;;19.90;50.40;;;;;;5104490;28;20235;-83
2022/10/12 11:09:14;;;;;;;14.00;10.30;;;19.90;49.20;;;;;;5079263;28;20197;-84
2022/10/12 11:12:11;;;;;;;15.30;9.63;;;19.60;50.30;;;;;;5084632;28;20199;-84
2022/10/12 11:14:43;;;;;;;13.55;8.52;;;18.70;50.30;;;;;;5088963;28;20195;-84
2022/10/12 11:17:25;;;;;;;15.48;8.73;;;18.50;54.60;;;;;;5090435;28;20204;-83
2022/10/12 11:20:06;;;;;;;12.52;8.18;;;18.60;52.80;;;;;;5090234;28;20204;-84
2022/10/12 11:22:58;;;;;;;15.73;7.82;;;18.60;53.10;;;;;;5096711;28;20693;-83
2022/10/12 11:25:50;;;;;;;19.63;9.23;;;18.60;54.70;;;;;;5096833;28;20199;-83
2022/10/12 11:28:17;;;;;;;10.32;6.75;;;18.60;54.60;;;;;;5078818;28;20295;-83
2022/10/12 11:31:18;;;;;;;14.88;10.25;;;18.40;54.50;;;;;;5094822;28;20199;-83
2022/10/12 11:34:02;;;;;;;17.58;12.27;;;18.00;62.40;;;;;;5097055;28;20195;-87
2022/10/12 11:36:42;;;;;;;22.75;12.35;;;18.10;65.20;;;;;;5097034;28;20193;-84
2022/10/12 11:39:19;;;;;;;18.02;12.27;;;18.00;66.00;;;;;;5103339;28;20276;-84
2022/10/12 11:41:54;;;;;;;16.25;10.95;;;18.00;67.00;;;;;;5095749;28;20193;-83
2022/10/12 11:44:40;;;;;;;16.88;11.52;;;17.70;75.90;;;;;;5089570;28;20200;-83
2022/10/12 11:47:23;;;;;;;15.27;11.32;;;17.70;75.90;;;;;;5084925;28;20203;-83
2022/10/12 11:49:56;;;;;;;19.77;11.40;;;17.60;79.10;;;;;;5097491;28;20211;-83
2022/10/12 11:52:58;;;;;;;17.92;10.80;;;17.40;77.90;;;;;;5091616;28;20204;-83
2022/10/12 11:55:43;;;;;;;17.48;11.38;;;17.50;76.50;;;;;;5090860;28;20580;-83
2022/10/12 11:58:17;;;;;;;14.85;10.60;;;17.50;78.20;;;;;;5081124;28;20212;-83
2022/10/12 12:01:06;;;;;;;12.77;10.65;;;17.50;77.50;;;;;;5091336;28;20196;-83
2022/10/12 12:04:13;;;;;;;15.68;11.35;;;17.40;78.30;;;;;;5094317;28;20698;-83
2022/10/12 12:07:00;;;;;;;18.85;11.82;;;17.30;78.90;;;;;;5093127;28;20199;-83
2022/10/12 12:09:45;;;;;;;16.48;11.57;;;17.40;77.00;;;;;;5094077;28;20191;-83
2022/10/12 12:12:21;;;;;;;18.63;11.35;;;17.30;78.20;;;;;;5090890;28;20284;-86
2022/10/12 12:15:05;;;;;;;17.10;11.57;;;17.20;78.80;;;;;;5082210;28;20198;-86
2022/10/12 12:17:34;;;;;;;17.90;11.60;;;17.10;79.80;;;;;;5091994;28;20192;-88
2022/10/12 12:20:42;;;;;;;17.25;11.02;;;17.00;82.90;;;;;;5088993;28;20196;-86
2022/10/12 12:23:21;;;;;;;15.32;9.88;;;17.20;81.00;;;;;;5092212;28;20222;-86
2022/10/12 12:26:18;;;;;;;18.40;11.30;;;17.40;78.30;;;;;;5085702;28;20192;-86
2022/10/12 12:29:26;;;;;;;18.20;10.35;;;17.30;78.90;;;;;;5079985;28;20550;-86
2022/10/12 12:31:57;;;;;;;17.10;11.10;;;17.30;78.90;;;;;;5088389;28;20193;-86
2022/10/12 12:34:28;;;;;;;22.00;12.10;;;17.20;78.90;;;;;;5089936;28;20200;-86
2022/10/12 12:36:58;;;;;;;21.20;12.10;;;17.40;79.00;;;;;;5081690;28;20196;-86
2022/10/12 12:39:34;;;;;;;17.17;11.32;;;17.50;79.90;;;;;;5078354;28;20189;-86
2022/10/12 12:42:23;;;;;;;19.50;11.48;;;17.50;78.70;;;;;;5086507;28;20561;-86
2022/10/12 12:45:17;;;;;;;20.95;12.80;;;17.20;79.00;;;;;;5086114;28;20678;-86
2022/10/12 12:47:45;;;;;;;16.05;11.23;;;17.00;78.70;;;;;;5093740;28;20196;-85
2022/10/12 12:50:34;;;;;;;18.33;11.80;;;16.90;80.40;;;;;;5092630;28;20227;-86
2022/10/12 12:53:08;;;;;;;19.38;11.50;;;16.80;80.70;;;;;;5090194;28;20200;-86
2022/10/12 12:56:02;;;;;;;22.80;12.68;;;16.80;80.60;;;;;;5089291;28;20188;-86
2022/10/12 12:58:51;;;;;;;22.58;12.68;;;16.70;82.90;;;;;;5091510;28;20284;-86